Time;durP1;ratioP1;P1;durP2;ratioP2;P2;SDS_P1;SDS_P2;PMS_P1;PMS_P2;Temp;Humidity;BMP_temperature;BMP_pressure;BME280_temperature;BME280_humidity;BME280_pressure;Samples;Min_cycle;Max_cycle;Signal;HPM_P1;HPM_P2
2021/05/13 00:01:06;;;;;;;5.90;1.90;;;;;;;;;;4991704;28;20022;-73
2021/05/13 00:03:35;;;;;;;6.78;2.05;;;;;;;;;;4991588;28;20023;-73
2021/05/13 00:06:02;;;;;;;6.03;1.80;;;;;;;;;;4991526;28;20417;-73
2021/05/13 00:08:28;;;;;;;2.95;1.20;;;;;;;;;;4991593;28;20101;-73
2021/05/13 00:11:02;;;;;;;4.47;1.42;;;;;;;;;;4990292;28;20027;-73
2021/05/13 00:13:29;;;;;;;3.55;1.52;;;;;;;;;;4990150;28;20034;-72
2021/05/13 00:15:55;;;;;;;3.45;1.30;;;;;;;;;;4991442;28;20053;-73
2021/05/13 00:18:21;;;;;;;3.45;1.42;;;;;;;;;;4990110;28;20026;-72
2021/05/13 00:20:47;;;;;;;2.83;1.40;;;;;;;;;;4991183;28;20465;-73
2021/05/13 00:23:13;;;;;;;3.58;1.60;;;;;;;;;;4991207;28;20019;-73
2021/05/13 00:25:41;;;;;;;3.85;1.70;;;;;;;;;;4989985;28;20063;-73
2021/05/13 00:28:08;;;;;;;3.45;1.50;;;;;;;;;;4991200;28;20097;-73
2021/05/13 00:30:34;;;;;;;3.28;1.60;;;;;;;;;;4991392;28;20030;-73
2021/05/13 00:33:00;;;;;;;3.45;1.52;;;;;;;;;;4991322;28;20023;-72
2021/05/13 00:35:26;;;;;;;2.42;1.25;;;;;;;;;;5006066;28;20049;-73
2021/05/13 00:37:52;;;;;;;3.13;1.45;;;;;;;;;;5010695;28;20029;-73
2021/05/13 00:40:19;;;;;;;3.13;1.42;;;;;;;;;;5010566;28;20471;-73
2021/05/13 00:42:45;;;;;;;3.00;1.30;;;;;;;;;;5009506;28;20022;-73
2021/05/13 00:45:13;;;;;;;2.28;1.20;;;;;;;;;;5010639;28;20038;-73
2021/05/13 00:47:47;;;;;;;3.63;1.30;;;;;;;;;;5010734;28;20018;-73
2021/05/13 00:50:13;;;;;;;3.90;1.23;;;;;;;;;;5010687;28;20487;-73
2021/05/13 00:52:39;;;;;;;4.07;1.30;;;;;;;;;;5010625;28;20026;-72
2021/05/13 00:55:06;;;;;;;4.15;1.33;;;;;;;;;;5041842;28;20051;-73
2021/05/13 00:57:32;;;;;;;2.97;1.40;;;;;;;;;;5113993;28;20027;-73
2021/05/13 01:00:02;;;;;;;2.60;1.25;;;;;;;;;;5113718;28;20047;-73
2021/05/13 01:02:28;;;;;;;3.28;1.58;;;;;;;;;;5112445;28;20022;-73
2021/05/13 01:04:54;;;;;;;2.53;1.35;;;;;;;;;;5113239;28;20019;-72
2021/05/13 01:07:21;;;;;;;3.55;1.55;;;;;;;;;;5112998;28;20049;-73
2021/05/13 01:09:47;;;;;;;3.08;1.48;;;;;;;;;;5010787;28;20667;-73
2021/05/13 01:12:18;;;;;;;3.50;1.30;;;;;;;;;;5041089;28;20045;-73
2021/05/13 01:14:46;;;;;;;3.28;1.50;;;;;;;;;;5009426;28;20034;-73
2021/05/13 01:17:17;;;;;;;5.07;1.58;;;;;;;;;;5009318;28;20018;-73
2021/05/13 01:19:46;;;;;;;3.00;1.50;;;;;;;;;;5041110;28;20034;-73
2021/05/13 01:22:12;;;;;;;2.90;1.52;;;;;;;;;;5041299;28;20030;-73
2021/05/13 01:24:39;;;;;;;3.20;1.50;;;;;;;;;;5009606;28;20030;-73
2021/05/13 01:27:06;;;;;;;3.35;1.50;;;;;;;;;;5009122;28;20067;-72
2021/05/13 01:29:32;;;;;;;3.70;1.45;;;;;;;;;;5009488;28;20030;-73
2021/05/13 01:31:58;;;;;;;4.05;1.50;;;;;;;;;;5041028;27;20531;-72
2021/05/13 01:34:24;;;;;;;2.88;1.50;;;;;;;;;;5009288;28;20518;-73
2021/05/13 01:36:50;;;;;;;2.25;1.20;;;;;;;;;;5009985;28;20046;-73
2021/05/13 01:39:16;;;;;;;2.95;1.50;;;;;;;;;;5041554;27;20026;-73
2021/05/13 01:41:43;;;;;;;4.75;1.50;;;;;;;;;;5009984;28;20033;-73
2021/05/13 01:44:09;;;;;;;3.10;1.23;;;;;;;;;;5041658;27;20113;-72
2021/05/13 01:46:36;;;;;;;2.63;1.40;;;;;;;;;;5041563;28;20381;-73
2021/05/13 01:49:02;;;;;;;2.45;1.45;;;;;;;;;;5009652;28;20018;-73
2021/05/13 01:51:28;;;;;;;5.28;1.58;;;;;;;;;;5009695;28;20030;-73
2021/05/13 01:53:54;;;;;;;2.88;1.50;;;;;;;;;;5009219;28;20029;-72
2021/05/13 01:56:21;;;;;;;3.17;1.55;;;;;;;;;;4993007;28;20026;-73
2021/05/13 01:58:47;;;;;;;3.05;1.67;;;;;;;;;;4989914;28;20022;-73
2021/05/13 02:01:15;;;;;;;4.07;1.88;;;;;;;;;;4989880;28;20623;-72
2021/05/13 02:03:42;;;;;;;3.03;1.67;;;;;;;;;;4991472;28;20121;-72
2021/05/13 02:06:09;;;;;;;3.70;2.00;;;;;;;;;;5039969;28;20026;-73
2021/05/13 02:08:35;;;;;;;4.47;1.80;;;;;;;;;;5041117;28;20018;-72
2021/05/13 02:11:02;;;;;;;3.75;2.25;;;;;;;;;;5009430;28;20022;-72
2021/05/13 02:13:28;;;;;;;4.68;2.10;;;;;;;;;;5009274;28;20355;-72
2021/05/13 02:15:54;;;;;;;3.42;2.03;;;;;;;;;;5009147;28;20030;-73
2021/05/13 02:18:20;;;;;;;6.55;2.00;;;;;;;;;;5008678;28;20029;-72
2021/05/13 02:20:49;;;;;;;4.50;2.47;;;;;;;;;;5008391;28;20127;-73
2021/05/13 02:23:16;;;;;;;10.45;2.83;;;;;;;;;;5008435;28;20026;-72
2021/05/13 02:25:45;;;;;;;3.63;2.50;;;;;;;;;;5008588;28;20122;-72
2021/05/13 02:28:11;;;;;;;4.20;2.80;;;;;;;;;;5008588;28;20018;-72
2021/05/13 02:30:37;;;;;;;4.72;3.13;;;;;;;;;;5040329;28;20034;-72
2021/05/13 02:33:04;;;;;;;5.38;2.70;;;;;;;;;;5008333;28;20045;-73
2021/05/13 02:35:30;;;;;;;3.65;2.38;;;;;;;;;;5007748;28;20053;-72
2021/05/13 02:37:57;;;;;;;4.05;2.20;;;;;;;;;;5039730;28;20086;-72
2021/05/13 02:40:23;;;;;;;4.63;2.20;;;;;;;;;;5008185;28;20022;-72
2021/05/13 02:42:50;;;;;;;3.80;2.30;;;;;;;;;;5039834;28;20018;-72
2021/05/13 02:45:16;;;;;;;3.40;1.90;;;;;;;;;;5039868;28;20025;-72
2021/05/13 02:47:42;;;;;;;3.92;2.10;;;;;;;;;;5008262;28;20026;-73
2021/05/13 02:50:10;;;;;;;3.40;2.10;;;;;;;;;;5039942;28;20147;-72
2021/05/13 02:52:36;;;;;;;3.88;2.22;;;;;;;;;;5002724;28;20080;-73
2021/05/13 02:55:03;;;;;;;2.85;1.60;;;;;;;;;;4994376;28;20074;-72
2021/05/13 02:57:29;;;;;;;3.35;1.95;;;;;;;;;;5008805;28;20026;-72
2021/05/13 03:00:16;;;;;;;4.65;1.95;;;;;;;;;;5040336;27;20026;-72
2021/05/13 03:02:42;;;;;;;3.80;1.70;;;;;;;;;;5040310;27;20026;-72
2021/05/13 03:05:09;;;;;;;5.13;1.77;;;;;;;;;;5008442;28;20024;-72
2021/05/13 03:07:42;;;;;;;3.90;1.80;;;;;;;;;;5011611;28;20026;-72
2021/05/13 03:10:16;;;;;;;3.10;1.70;;;;;;;;;;5012137;28;20101;-72
2021/05/13 03:12:42;;;;;;;2.78;1.80;;;;;;;;;;5043677;28;20055;-72
2021/05/13 03:15:09;;;;;;;5.03;2.30;;;;;;;;;;5011729;28;20065;-72
2021/05/13 03:17:35;;;;;;;2.80;1.50;;;;;;;;;;5011756;28;20105;-72
2021/05/13 03:20:01;;;;;;;3.35;1.67;;;;;;;;;;5012073;28;20486;-72
2021/05/13 03:22:27;;;;;;;4.13;1.90;;;;;;;;;;5011963;28;20022;-72
2021/05/13 03:24:59;;;;;;;3.70;1.92;;;;;;;;;;5011951;28;20033;-72
2021/05/13 03:27:39;;;;;;;3.75;1.90;;;;;;;;;;5011724;28;20017;-72
2021/05/13 03:30:05;;;;;;;4.10;1.70;;;;;;;;;;5011568;28;20103;-73
2021/05/13 03:32:31;;;;;;;3.53;1.70;;;;;;;;;;5011580;28;20029;-72
2021/05/13 03:34:57;;;;;;;3.88;1.85;;;;;;;;;;5011402;28;20121;-72
2021/05/13 03:37:27;;;;;;;3.30;1.70;;;;;;;;;;5011666;28;20026;-72
2021/05/13 03:39:53;;;;;;;4.05;1.70;;;;;;;;;;5011506;28;20049;-72
2021/05/13 03:42:19;;;;;;;5.47;2.08;;;;;;;;;;5011693;28;20497;-73
2021/05/13 03:44:45;;;;;;;4.28;1.58;;;;;;;;;;5043226;28;20429;-72
2021/05/13 03:47:11;;;;;;;3.78;1.77;;;;;;;;;;5011148;28;20014;-72
2021/05/13 03:49:37;;;;;;;5.20;1.92;;;;;;;;;;5043092;28;20075;-73
2021/05/13 03:52:03;;;;;;;3.97;1.98;;;;;;;;;;5011357;28;20025;-72
2021/05/13 03:54:29;;;;;;;3.83;2.03;;;;;;;;;;5005932;28;20095;-73
2021/05/13 03:56:55;;;;;;;4.32;1.98;;;;;;;;;;4993789;28;20029;-72
2021/05/13 03:59:21;;;;;;;4.32;1.90;;;;;;;;;;5042981;28;20135;-72
2021/05/13 04:02:04;;;;;;;3.55;2.05;;;;;;;;;;5011389;28;20558;-72
2021/05/13 04:04:30;;;;;;;3.17;1.63;;;;;;;;;;5011208;28;20026;-72
2021/05/13 04:06:57;;;;;;;3.83;1.80;;;;;;;;;;5011105;28;20390;-72
2021/05/13 04:09:23;;;;;;;3.40;1.80;;;;;;;;;;5011121;28;20014;-72
2021/05/13 04:11:49;;;;;;;4.35;1.50;;;;;;;;;;5043052;28;20022;-72
2021/05/13 04:14:17;;;;;;;4.25;1.60;;;;;;;;;;5011099;28;20026;-72
2021/05/13 04:16:50;;;;;;;2.95;1.50;;;;;;;;;;5010807;28;20083;-73
2021/05/13 04:19:16;;;;;;;2.88;1.42;;;;;;;;;;5011097;28;20098;-72
2021/05/13 04:21:42;;;;;;;3.50;1.70;;;;;;;;;;5011140;28;20078;-72
2021/05/13 04:24:08;;;;;;;3.28;1.63;;;;;;;;;;5010947;28;20064;-73
2021/05/13 04:26:34;;;;;;;2.25;1.25;;;;;;;;;;5042430;28;20022;-72
2021/05/13 04:29:00;;;;;;;5.07;1.48;;;;;;;;;;5010683;28;20026;-72
2021/05/13 04:31:27;;;;;;;3.10;1.63;;;;;;;;;;5010833;28;20022;-72
2021/05/13 04:33:53;;;;;;;3.67;1.63;;;;;;;;;;5042342;28;20046;-72
2021/05/13 04:36:19;;;;;;;3.08;1.70;;;;;;;;;;5010665;28;20026;-73
2021/05/13 04:38:45;;;;;;;3.08;1.30;;;;;;;;;;5010593;28;20026;-72
2021/05/13 04:41:12;;;;;;;2.95;1.50;;;;;;;;;;5010447;28;20061;-72
2021/05/13 04:43:38;;;;;;;2.90;1.40;;;;;;;;;;5010644;28;20654;-72
2021/05/13 04:46:06;;;;;;;2.85;1.45;;;;;;;;;;5010405;28;20466;-72
2021/05/13 04:49:33;;;;;;;4.88;1.70;;;;;;;;;;5010565;28;20086;-72
2021/05/13 04:51:31;;;;;;;2.97;1.50;;;;;;;;;;5023076;28;20033;-72
2021/05/13 04:53:58;;;;;;;3.80;1.60;;;;;;;;;;5010327;28;20406;-73
2021/05/13 04:56:24;;;;;;;2.85;1.48;;;;;;;;;;4993759;28;20463;-72
2021/05/13 04:58:51;;;;;;;2.70;1.58;;;;;;;;;;4990853;28;20520;-72
2021/05/13 05:01:17;;;;;;;3.95;1.40;;;;;;;;;;4990620;28;20059;-72
2021/05/13 05:03:43;;;;;;;3.17;1.63;;;;;;;;;;5021926;28;20035;-72
2021/05/13 05:06:10;;;;;;;2.75;1.35;;;;;;;;;;4990190;28;20042;-72
2021/05/13 05:08:36;;;;;;;2.88;1.40;;;;;;;;;;5022190;28;20152;-72
2021/05/13 05:11:03;;;;;;;2.13;1.20;;;;;;;;;;5022159;28;20324;-72
2021/05/13 05:13:29;;;;;;;3.95;1.35;;;;;;;;;;4990400;28;20019;-72
2021/05/13 05:15:56;;;;;;;3.97;1.58;;;;;;;;;;4990434;28;20113;-72
2021/05/13 05:18:22;;;;;;;2.35;1.20;;;;;;;;;;4991014;28;20525;-72
2021/05/13 05:20:49;;;;;;;4.95;1.70;;;;;;;;;;5009617;28;20038;-72
2021/05/13 05:23:15;;;;;;;3.28;1.52;;;;;;;;;;5009910;28;20026;-72
2021/05/13 05:25:41;;;;;;;3.50;1.45;;;;;;;;;;5010140;28;20531;-72
2021/05/13 05:28:08;;;;;;;6.38;1.60;;;;;;;;;;5008250;28;20034;-72
2021/05/13 05:30:35;;;;;;;2.58;1.27;;;;;;;;;;5008145;28;20029;-72
2021/05/13 05:33:01;;;;;;;6.88;2.72;;;;;;;;;;5009502;28;20389;-72
2021/05/13 05:35:28;;;;;;;4.80;1.52;;;;;;;;;;5018323;28;20049;-72
2021/05/13 05:37:57;;;;;;;6.05;1.88;;;;;;;;;;5029019;28;20026;-72
2021/05/13 05:40:23;;;;;;;5.78;1.60;;;;;;;;;;5029072;28;20037;-70
2021/05/13 05:42:50;;;;;;;4.25;1.98;;;;;;;;;;5027511;28;20466;-71
2021/05/13 05:45:17;;;;;;;3.25;1.73;;;;;;;;;;5027459;28;20074;-71
2021/05/13 05:47:44;;;;;;;3.83;2.10;;;;;;;;;;5029270;28;20035;-71
2021/05/13 05:50:10;;;;;;;3.67;1.90;;;;;;;;;;5029181;28;20528;-71
2021/05/13 05:52:36;;;;;;;6.57;1.98;;;;;;;;;;5029154;28;20066;-70
2021/05/13 05:55:04;;;;;;;6.00;1.88;;;;;;;;;;5017644;28;20038;-71
2021/05/13 05:57:30;;;;;;;4.00;1.83;;;;;;;;;;4993427;28;20386;-73
2021/05/13 05:59:58;;;;;;;3.13;1.60;;;;;;;;;;5005837;28;20030;-73
2021/05/13 06:02:24;;;;;;;2.40;1.30;;;;;;;;;;5009174;28;20591;-72
2021/05/13 06:04:51;;;;;;;4.18;1.23;;;;;;;;;;5009524;28;20040;-72
2021/05/13 06:07:17;;;;;;;3.05;1.40;;;;;;;;;;5009032;28;20025;-71
2021/05/13 06:09:44;;;;;;;4.28;1.70;;;;;;;;;;5008781;28;20567;-74
2021/05/13 06:12:10;;;;;;;4.35;1.63;;;;;;;;;;5009052;28;20067;-73
2021/05/13 06:14:36;;;;;;;2.95;1.40;;;;;;;;;;5008816;28;20051;-73
2021/05/13 06:17:02;;;;;;;3.22;1.40;;;;;;;;;;5009171;28;20033;-73
2021/05/13 06:19:28;;;;;;;2.75;1.30;;;;;;;;;;5008434;28;20024;-75
2021/05/13 06:21:54;;;;;;;2.55;1.17;;;;;;;;;;5008672;28;20535;-75
2021/05/13 06:24:20;;;;;;;2.70;1.20;;;;;;;;;;5009110;28;20419;-74
2021/05/13 06:27:00;;;;;;;2.88;1.02;;;;;;;;;;5008743;28;20030;-73
2021/05/13 06:29:28;;;;;;;3.63;1.27;;;;;;;;;;5008985;28;20356;-74
2021/05/13 06:31:54;;;;;;;3.13;1.00;;;;;;;;;;5008558;28;20095;-74
2021/05/13 06:34:20;;;;;;;1.95;1.08;;;;;;;;;;5040163;28;20073;-75
2021/05/13 06:36:46;;;;;;;2.53;1.13;;;;;;;;;;5040169;28;20026;-74
2021/05/13 06:39:12;;;;;;;2.08;0.95;;;;;;;;;;5008763;28;20026;-69
2021/05/13 06:41:41;;;;;;;5.25;1.00;;;;;;;;;;5007517;28;20026;-70
2021/05/13 06:44:07;;;;;;;2.78;0.85;;;;;;;;;;5040533;28;20026;-72
2021/05/13 06:46:33;;;;;;;2.90;1.25;;;;;;;;;;5008966;28;20109;-73
2021/05/13 06:48:59;;;;;;;2.00;0.95;;;;;;;;;;5008757;28;20105;-72
2021/05/13 06:51:25;;;;;;;4.57;1.10;;;;;;;;;;5008842;28;20026;-73
2021/05/13 06:53:51;;;;;;;3.83;1.00;;;;;;;;;;5008549;28;20399;-72
2021/05/13 06:56:18;;;;;;;4.32;1.00;;;;;;;;;;5024290;28;20026;-75
2021/05/13 06:58:45;;;;;;;2.67;1.00;;;;;;;;;;4988940;28;20501;-74
2021/05/13 07:01:11;;;;;;;3.20;1.15;;;;;;;;;;4989125;28;20098;-76
2021/05/13 07:03:37;;;;;;;1.67;0.90;;;;;;;;;;5020317;28;20371;-75
2021/05/13 07:06:03;;;;;;;2.63;1.02;;;;;;;;;;4988916;28;20026;-70
2021/05/13 07:08:29;;;;;;;2.63;1.00;;;;;;;;;;5020324;28;20026;-68
2021/05/13 07:10:56;;;;;;;3.42;1.10;;;;;;;;;;4988291;28;20037;-66
2021/05/13 07:13:22;;;;;;;2.35;0.98;;;;;;;;;;4990242;28;20011;-71
2021/05/13 07:15:48;;;;;;;1.90;1.00;;;;;;;;;;5008303;28;20443;-72
2021/05/13 07:18:15;;;;;;;2.97;1.00;;;;;;;;;;5008366;28;20030;-72
2021/05/13 07:20:42;;;;;;;1.52;0.80;;;;;;;;;;5008390;28;20428;-72
2021/05/13 07:23:08;;;;;;;2.95;1.20;;;;;;;;;;5008434;28;20082;-72
2021/05/13 07:25:34;;;;;;;2.95;1.30;;;;;;;;;;5040273;28;20049;-72
2021/05/13 07:28:01;;;;;;;2.53;1.17;;;;;;;;;;5008267;28;20415;-69
2021/05/13 07:30:27;;;;;;;11.95;1.45;;;;;;;;;;5008157;28;20498;-68
2021/05/13 07:32:53;;;;;;;7.15;1.30;;;;;;;;;;5008314;28;20056;-68
2021/05/13 07:35:20;;;;;;;10.88;1.60;;;;;;;;;;5008106;28;20379;-67
2021/05/13 07:37:47;;;;;;;5.57;1.38;;;;;;;;;;5039950;28;20394;-67
2021/05/13 07:40:14;;;;;;;3.30;1.60;;;;;;;;;;5039841;28;20022;-67
2021/05/13 07:42:40;;;;;;;3.70;1.20;;;;;;;;;;5008309;28;20022;-69
2021/05/13 07:45:07;;;;;;;6.38;1.40;;;;;;;;;;5008193;28;20375;-68
2021/05/13 07:47:39;;;;;;;5.97;1.23;;;;;;;;;;5008063;28;20022;-68
2021/05/13 07:50:09;;;;;;;7.20;1.40;;;;;;;;;;5008066;28;20519;-68
2021/05/13 07:52:35;;;;;;;3.80;1.50;;;;;;;;;;5009579;28;20107;-70
2021/05/13 07:55:02;;;;;;;4.55;1.10;;;;;;;;;;5023118;28;20339;-69
2021/05/13 07:57:28;;;;;;;4.53;1.13;;;;;;;;;;4991858;28;20383;-69
2021/05/13 07:59:55;;;;;;;2.42;1.10;;;;;;;;;;4995463;28;20083;-68
2021/05/13 08:02:21;;;;;;;3.03;1.20;;;;;;;;;;4992145;28;20454;-69
2021/05/13 08:04:48;;;;;;;4.32;1.23;;;;;;;;;;4991690;28;20112;-73
2021/05/13 08:07:14;;;;;;;3.38;1.00;;;;;;;;;;4991428;28;20047;-72
2021/05/13 08:09:40;;;;;;;4.18;0.85;;;;;;;;;;4991663;28;20027;-73
2021/05/13 08:12:06;;;;;;;5.43;1.20;;;;;;;;;;4990197;28;20486;-72
2021/05/13 08:14:32;;;;;;;2.10;0.90;;;;;;;;;;4991491;28;20027;-72
2021/05/13 08:16:59;;;;;;;6.13;1.05;;;;;;;;;;4991473;28;20023;-72
2021/05/13 08:19:25;;;;;;;2.15;1.00;;;;;;;;;;4990130;28;20022;-71
2021/05/13 08:21:51;;;;;;;2.70;0.90;;;;;;;;;;4990069;28;20122;-68
2021/05/13 08:24:17;;;;;;;3.47;0.98;;;;;;;;;;4991491;28;20101;-69
2021/05/13 08:26:43;;;;;;;2.25;0.80;;;;;;;;;;4989956;28;20435;-72
2021/05/13 08:29:09;;;;;;;0.90;0.70;;;;;;;;;;4991650;28;20022;-70
2021/05/13 08:31:35;;;;;;;5.57;0.80;;;;;;;;;;4991299;28;20022;-72
2021/05/13 08:34:01;;;;;;;5.30;0.80;;;;;;;;;;4991099;28;20050;-72
2021/05/13 08:36:27;;;;;;;2.60;0.80;;;;;;;;;;4994156;28;20434;-73
2021/05/13 08:38:53;;;;;;;6.10;0.90;;;;;;;;;;5025020;28;20471;-72
2021/05/13 08:41:19;;;;;;;1.23;0.70;;;;;;;;;;4991459;28;20072;-72
2021/05/13 08:43:50;;;;;;;3.13;0.80;;;;;;;;;;5003979;28;20414;-73
2021/05/13 08:46:19;;;;;;;8.43;1.00;;;;;;;;;;4990820;28;20018;-71
2021/05/13 08:48:46;;;;;;;2.33;0.70;;;;;;;;;;5014592;28;20032;-71
2021/05/13 08:51:12;;;;;;;3.17;1.00;;;;;;;;;;5010265;28;20539;-71
2021/05/13 08:53:48;;;;;;;2.88;0.80;;;;;;;;;;5042452;28;20113;-71
2021/05/13 08:56:14;;;;;;;4.45;0.90;;;;;;;;;;4995648;28;20030;-71
2021/05/13 08:58:42;;;;;;;2.13;0.80;;;;;;;;;;5022228;28;20025;-70
2021/05/13 09:01:13;;;;;;;3.25;0.77;;;;;;;;;;5025181;28;20025;-72
2021/05/13 09:03:39;;;;;;;1.30;0.60;;;;;;;;;;4989985;28;20481;-70
2021/05/13 09:06:06;;;;;;;1.65;0.75;;;;;;;;;;4990265;28;20075;-71
2021/05/13 09:08:32;;;;;;;2.45;1.08;;;;;;;;;;4993945;28;20022;-71
2021/05/13 09:11:11;;;;;;;1.63;0.90;;;;;;;;;;4990382;28;20026;-70
2021/05/13 09:13:37;;;;;;;2.22;0.57;;;;;;;;;;4990197;28;20098;-71
2021/05/13 09:16:23;;;;;;;0.98;0.55;;;;;;;;;;4990249;28;20438;-70
2021/05/13 09:18:49;;;;;;;2.08;0.60;;;;;;;;;;5021473;28;20048;-69
2021/05/13 09:21:15;;;;;;;1.98;0.80;;;;;;;;;;4990789;28;20030;-70
2021/05/13 09:23:42;;;;;;;0.82;0.60;;;;;;;;;;4990154;28;20076;-71
2021/05/13 09:26:12;;;;;;;2.10;0.65;;;;;;;;;;5021440;28;20117;-71
2021/05/13 09:28:42;;;;;;;0.98;0.52;;;;;;;;;;4990406;28;20355;-68
2021/05/13 09:31:08;;;;;;;0.82;0.52;;;;;;;;;;5023770;28;20029;-70
2021/05/13 09:33:39;;;;;;;3.30;0.50;;;;;;;;;;4992152;28;20097;-74
2021/05/13 09:36:23;;;;;;;1.80;0.50;;;;;;;;;;4990102;28;20022;-72
2021/05/13 09:38:49;;;;;;;1.17;0.60;;;;;;;;;;4990227;28;20026;-71
2021/05/13 09:41:28;;;;;;;1.00;0.50;;;;;;;;;;5021436;28;20030;-71
2021/05/13 09:43:55;;;;;;;1.52;0.47;;;;;;;;;;5021422;28;20037;-70
2021/05/13 09:46:31;;;;;;;2.60;0.55;;;;;;;;;;4998687;28;20517;-71
2021/05/13 09:48:58;;;;;;;10.38;1.00;;;;;;;;;;5009320;28;20030;-72
2021/05/13 09:51:28;;;;;;;7.40;1.08;;;;;;;;;;5009493;28;20029;-71
2021/05/13 09:54:03;;;;;;;16.08;1.85;;;;;;;;;;5041457;28;20053;-73
2021/05/13 09:56:30;;;;;;;14.50;1.80;;;;;;;;;;4993137;28;20031;-72
2021/05/13 09:58:57;;;;;;;9.02;1.15;;;;;;;;;;4989730;28;20390;-71
2021/05/13 10:01:24;;;;;;;5.95;1.20;;;;;;;;;;5021296;27;20105;-70
2021/05/13 10:03:53;;;;;;;6.75;1.50;;;;;;;;;;4989062;28;20023;-73
2021/05/13 10:06:19;;;;;;;6.35;1.27;;;;;;;;;;4989182;28;20018;-72
2021/05/13 10:08:45;;;;;;;6.18;0.85;;;;;;;;;;4989295;28;20023;-71
2021/05/13 10:11:15;;;;;;;6.63;1.08;;;;;;;;;;4989417;28;20131;-71
2021/05/13 10:13:42;;;;;;;1.80;0.75;;;;;;;;;;5004486;28;20135;-73
2021/05/13 10:16:08;;;;;;;6.07;1.00;;;;;;;;;;5008343;28;20029;-71
2021/05/13 10:18:46;;;;;;;5.20;1.17;;;;;;;;;;5005258;28;20453;-72
2021/05/13 10:21:22;;;;;;;2.92;0.63;;;;;;;;;;5005494;28;20082;-72
2021/05/13 10:23:53;;;;;;;1.85;0.70;;;;;;;;;;5032223;28;20044;-71
2021/05/13 10:26:37;;;;;;;2.50;0.90;;;;;;;;;;4998363;28;20475;-71
2021/05/13 10:29:22;;;;;;;2.17;0.63;;;;;;;;;;5069595;28;20019;-75
2021/05/13 10:32:02;;;;;;;3.83;0.50;;;;;;;;;;5014221;28;20018;-68
2021/05/13 10:34:47;;;;;;;2.40;0.57;;;;;;;;;;5008912;28;20053;-66
2021/05/13 10:37:19;;;;;;;5.70;1.00;;;;;;;;;;5009149;28;20057;-68
2021/05/13 10:40:04;;;;;;;4.75;0.70;;;;;;;;;;5009089;28;20509;-67
2021/05/13 10:42:31;;;;;;;5.03;0.70;;;;;;;;;;5008857;28;20029;-67
2021/05/13 10:44:58;;;;;;;2.95;0.90;;;;;;;;;;5008565;28;20336;-67
2021/05/13 10:47:28;;;;;;;1.02;0.60;;;;;;;;;;5008884;28;20022;-67
2021/05/13 10:49:55;;;;;;;1.88;0.70;;;;;;;;;;5008868;28;20018;-67
2021/05/13 10:52:43;;;;;;;5.78;0.77;;;;;;;;;;5008805;28;20148;-67
2021/05/13 10:55:10;;;;;;;2.58;0.50;;;;;;;;;;5040297;28;20037;-67
2021/05/13 10:57:49;;;;;;;12.35;1.13;;;;;;;;;;5008087;28;20018;-67
2021/05/13 11:00:18;;;;;;;15.43;1.00;;;;;;;;;;5008157;28;20030;-65
2021/05/13 11:02:49;;;;;;;10.80;0.90;;;;;;;;;;5038677;28;20026;-66
2021/05/13 11:05:30;;;;;;;2.75;0.50;;;;;;;;;;5008457;28;20064;-65
2021/05/13 11:08:09;;;;;;;1.48;0.57;;;;;;;;;;5008647;28;20037;-64
2021/05/13 11:10:50;;;;;;;4.75;0.50;;;;;;;;;;5008820;28;20029;-64
2021/05/13 11:13:17;;;;;;;5.35;0.57;;;;;;;;;;5008527;28;20022;-65
2021/05/13 11:15:54;;;;;;;8.73;0.73;;;;;;;;;;5008261;28;20030;-65
2021/05/13 11:18:26;;;;;;;4.90;0.82;;;;;;;;;;5008289;28;20048;-65
2021/05/13 11:20:57;;;;;;;3.70;0.80;;;;;;;;;;5008562;28;20425;-69
2021/05/13 11:23:25;;;;;;;3.80;0.80;;;;;;;;;;5008679;28;20026;-70
2021/05/13 11:25:52;;;;;;;3.38;0.90;;;;;;;;;;5040176;28;20029;-70
2021/05/13 11:28:27;;;;;;;5.05;0.93;;;;;;;;;;5011239;28;20026;-70
2021/05/13 11:30:55;;;;;;;2.67;0.73;;;;;;;;;;5012051;28;20097;-68
2021/05/13 11:33:21;;;;;;;2.95;0.60;;;;;;;;;;5012012;28;20033;-70
2021/05/13 11:35:47;;;;;;;3.13;0.60;;;;;;;;;;5011601;28;20046;-64
2021/05/13 11:38:18;;;;;;;1.50;0.70;;;;;;;;;;5011794;28;20029;-67
2021/05/13 11:40:44;;;;;;;1.30;0.65;;;;;;;;;;5011794;28;20029;-68
2021/05/13 11:43:25;;;;;;;1.83;0.63;;;;;;;;;;5011787;28;20052;-65
2021/05/13 11:45:53;;;;;;;2.65;1.13;;;;;;;;;;5011399;28;20389;-66
2021/05/13 11:48:28;;;;;;;2.00;0.75;;;;;;;;;;5011479;28;20112;-65
2021/05/13 11:50:56;;;;;;;2.65;1.00;;;;;;;;;;5011473;28;20014;-65
2021/05/13 11:53:23;;;;;;;1.45;0.82;;;;;;;;;;5011410;28;20022;-65
2021/05/13 11:55:49;;;;;;;4.20;0.82;;;;;;;;;;5011150;28;20058;-65
2021/05/13 11:58:33;;;;;;;2.17;1.00;;;;;;;;;;5011342;28;20075;-66
2021/05/13 12:01:15;;;;;;;1.73;0.90;;;;;;;;;;5011445;28;20033;-65
2021/05/13 12:03:41;;;;;;;1.95;1.05;;;;;;;;;;5043110;28;20387;-65
2021/05/13 12:06:07;;;;;;;1.73;0.80;;;;;;;;;;5010992;28;20022;-65
2021/05/13 12:08:34;;;;;;;1.92;1.00;;;;;;;;;;5010997;28;20033;-65
2021/05/13 12:11:01;;;;;;;3.47;1.00;;;;;;;;;;5045576;28;20398;-65
2021/05/13 12:13:28;;;;;;;6.05;1.25;;;;;;;;;;5018002;28;20017;-65
2021/05/13 12:16:04;;;;;;;3.38;0.90;;;;;;;;;;5029542;28;20041;-65
2021/05/13 12:18:30;;;;;;;2.67;1.00;;;;;;;;;;5030028;28;20032;-65
2021/05/13 12:20:57;;;;;;;3.45;1.08;;;;;;;;;;5021554;28;20026;-74
2021/05/13 12:23:23;;;;;;;3.95;0.90;;;;;;;;;;5014716;28;20041;-75
2021/05/13 12:25:50;;;;;;;3.67;0.90;;;;;;;;;;5021349;28;20385;-73
2021/05/13 12:28:17;;;;;;;1.35;0.70;;;;;;;;;;5000203;28;20042;-73
2021/05/13 12:30:56;;;;;;;3.88;0.85;;;;;;;;;;5009795;28;20026;-68
2021/05/13 12:33:22;;;;;;;1.55;0.75;;;;;;;;;;5010649;28;20022;-68
2021/05/13 12:35:49;;;;;;;2.67;0.82;;;;;;;;;;5010249;28;20133;-68
2021/05/13 12:38:16;;;;;;;6.50;0.95;;;;;;;;;;5011749;28;20103;-67
2021/05/13 12:40:43;;;;;;;1.67;0.77;;;;;;;;;;5017829;28;20026;-69
2021/05/13 12:43:10;;;;;;;0.93;0.60;;;;;;;;;;5008737;28;20025;-69
2021/05/13 12:45:46;;;;;;;2.22;0.90;;;;;;;;;;5010602;28;20022;-69
2021/05/13 12:48:20;;;;;;;1.70;0.77;;;;;;;;;;5009341;28;20030;-69
2021/05/13 12:50:54;;;;;;;2.13;0.80;;;;;;;;;;5012590;28;20109;-68
2021/05/13 12:53:20;;;;;;;0.73;0.50;;;;;;;;;;5010092;28;20029;-69
2021/05/13 12:55:47;;;;;;;3.55;0.73;;;;;;;;;;5026198;28;20044;-71
2021/05/13 12:58:14;;;;;;;13.48;0.88;;;;;;;;;;5012824;28;20022;-72
2021/05/13 13:00:40;;;;;;;5.15;0.70;;;;;;;;;;5010591;28;20378;-70
2021/05/13 13:03:12;;;;;;;1.23;0.60;;;;;;;;;;5012793;28;20035;-69
2021/05/13 13:05:38;;;;;;;4.63;0.70;;;;;;;;;;5010133;28;20022;-74
2021/05/13 13:08:04;;;;;;;2.88;0.93;;;;;;;;;;5008768;28;20022;-73
2021/05/13 13:10:32;;;;;;;1.98;0.60;;;;;;;;;;5010040;28;20022;-72
2021/05/13 13:13:02;;;;;;;1.92;0.80;;;;;;;;;;5009998;28;20092;-72
2021/05/13 13:15:32;;;;;;;1.85;0.80;;;;;;;;;;5006798;28;20429;-77
2021/05/13 13:18:02;;;;;;;2.25;0.80;;;;;;;;;;4989447;28;20018;-72
2021/05/13 13:20:30;;;;;;;1.63;0.73;;;;;;;;;;4990526;28;20555;-72
2021/05/13 13:23:14;;;;;;;2.72;0.80;;;;;;;;;;4989134;28;20027;-70
2021/05/13 13:25:40;;;;;;;0.40;0.40;;;;;;;;;;4990392;28;20087;-71
2021/05/13 13:28:06;;;;;;;1.88;0.90;;;;;;;;;;4988857;28;20019;-71
2021/05/13 13:30:32;;;;;;;1.80;0.80;;;;;;;;;;4988934;28;20045;-71
2021/05/13 13:32:59;;;;;;;1.35;0.52;;;;;;;;;;4989034;28;20109;-72
2021/05/13 13:35:27;;;;;;;3.03;0.80;;;;;;;;;;4989786;28;20043;-71
2021/05/13 13:37:53;;;;;;;3.72;0.73;;;;;;;;;;4990364;28;20142;-64
2021/05/13 13:40:19;;;;;;;2.85;0.90;;;;;;;;;;4988467;28;20121;-63
2021/05/13 13:42:46;;;;;;;4.75;0.80;;;;;;;;;;4990047;28;20109;-64
2021/05/13 13:45:12;;;;;;;11.60;0.88;;;;;;;;;;4990057;28;20026;-67
2021/05/13 13:47:38;;;;;;;14.43;1.05;;;;;;;;;;4990110;28;20028;-67
2021/05/13 13:50:04;;;;;;;14.20;1.13;;;;;;;;;;4989556;28;20080;-65
2021/05/13 13:52:30;;;;;;;22.42;1.35;;;;;;;;;;4988760;28;20364;-68
2021/05/13 13:54:57;;;;;;;4.80;0.70;;;;;;;;;;4990001;28;20041;-69
2021/05/13 13:57:23;;;;;;;5.85;0.60;;;;;;;;;;4989788;28;20433;-65
2021/05/13 13:59:49;;;;;;;4.25;0.75;;;;;;;;;;4989762;28;20029;-68
2021/05/13 14:02:15;;;;;;;2.72;0.70;;;;;;;;;;4989937;28;20054;-71
2021/05/13 14:04:41;;;;;;;7.13;1.10;;;;;;;;;;4989721;28;20034;-68
2021/05/13 14:07:07;;;;;;;8.95;1.17;;;;;;;;;;4989749;28;20018;-68
2021/05/13 14:09:33;;;;;;;1.40;0.40;;;;;;;;;;4988456;28;20117;-68
2021/05/13 14:11:59;;;;;;;1.35;0.50;;;;;;;;;;4989734;28;20014;-68
2021/05/13 14:14:25;;;;;;;2.15;0.40;;;;;;;;;;4989524;28;20030;-68
2021/05/13 14:16:51;;;;;;;1.63;0.60;;;;;;;;;;4989636;28;20102;-68
2021/05/13 14:19:18;;;;;;;8.00;0.90;;;;;;;;;;4989420;28;20030;-70
2021/05/13 14:21:44;;;;;;;3.95;0.80;;;;;;;;;;4989519;28;20030;-70
2021/05/13 14:24:10;;;;;;;6.85;1.05;;;;;;;;;;4988844;28;20076;-65
2021/05/13 14:26:36;;;;;;;5.40;0.60;;;;;;;;;;4989491;28;20036;-74
2021/05/13 14:29:02;;;;;;;3.95;0.75;;;;;;;;;;4988005;28;20018;-72
2021/05/13 14:31:28;;;;;;;12.35;1.00;;;;;;;;;;4993653;28;20181;-73
2021/05/13 14:33:54;;;;;;;13.18;1.60;;;;;;;;;;5008763;28;20034;-70
2021/05/13 14:36:20;;;;;;;8.02;1.20;;;;;;;;;;5054230;27;20029;-66
2021/05/13 14:38:46;;;;;;;7.75;0.77;;;;;;;;;;4989604;28;20026;-65
2021/05/13 14:41:13;;;;;;;8.10;1.15;;;;;;;;;;5014653;28;20037;-66
2021/05/13 14:43:39;;;;;;;8.13;0.70;;;;;;;;;;5043787;28;20068;-66
2021/05/13 14:46:05;;;;;;;17.10;1.10;;;;;;;;;;5080363;28;20025;-69
2021/05/13 14:48:45;;;;;;;10.75;1.30;;;;;;;;;;5074089;28;20392;-66